METAR AND TAF INFORMATION
METAR FOR NTAA
ADDS - METARS form results

(0622 UTC 27 April 2018)
Data provider http://aviationweather.gov/adds/metars/
 
METAR text: NTAA 270600Z 07006KT 9999 FEW021 28/22 Q1014 NOSIG
Conditions at: NTAA (TAHITI-FAAA POLY, WS) observed 0600 UTC 27 April 2018
Temperature: 28.0°C (82°F)
Dewpoint: 22.0°C (72°F) [RH = 70%]
Pressure (altimeter): 29.94 inches Hg (1014.0 mb)
Winds: from the ENE (70 degrees) at 7 MPH (6 knots; 3.1 m/s)
Visibility: 6 or more miles (10+ km)
Ceiling: at least 12,000 feet AGL
Clouds: few clouds at 2100 feet AGL
Weather: no significant weather observed at this time

METAR text: NTAA 270530Z 08007KT 9999 FEW021 28/22 Q1013 NOSIG
Conditions at: NTAA (TAHITI-FAAA POLY, WS) observed 0530 UTC 27 April 2018
Temperature: 28.0°C (82°F)
Dewpoint: 22.0°C (72°F) [RH = 70%]
Pressure (altimeter): 29.91 inches Hg (1013.0 mb)
Winds: from the E (80 degrees) at 8 MPH (7 knots; 3.6 m/s)
Visibility: 6 or more miles (10+ km)
Ceiling: at least 12,000 feet AGL
Clouds: few clouds at 2100 feet AGL
Weather: no significant weather observed at this time

Forecast for: NTAA (TAHITI-FAAA POLY, WS)
Text: TAF NTAA 270500Z 2706/2812 06006KT 9999 FEW020
Forecast period: 0600 to 1700 UTC 27 April 2018
Forecast type: FROM: standard forecast or significant change
Winds: from the ENE (60 degrees) at 7 MPH (6 knots; 3.1 m/s)
Visibility: 6 or more miles (10+ km)
Clouds: few clouds at 2000 feet AGL
Weather: no significant weather forecast for this period
Forecast for: NTAA (TAHITI-FAAA POLY, WS)
Text: TAF NTAA 270500Z 2706/2812 06006KT 9999 FEW020
Forecast period: 0600 to 1700 UTC 27 April 2018
Forecast type: FROM: standard forecast or significant change
Winds: from the ENE (60 degrees) at 7 MPH (6 knots; 3.1 m/s)
Visibility: 6 or more miles (10+ km)
Clouds: few clouds at 2000 feet AGL
Weather: no significant weather forecast for this period
Forecast for: NTAA (TAHITI-FAAA POLY, WS)
Text: TAF NTAA 270500Z 2706/2812 06006KT 9999 FEW020
Forecast period: 1700 UTC 27 April 2018 to 1200 UTC 28 April 2018
Forecast type: BECOMING: Conditions expected to become as follows by 1800 UTC 27 April 2018
Winds: from the NE (50 degrees) at 16 MPH (14 knots; 7.3 m/s)
Visibility: 6 or more miles (10+ km)
Clouds: few clouds at 2000 feet AGL
scattered clouds at 4500 feet AGL
Weather: no significant weather forecast for this period
Forecast for: NTAA (TAHITI-FAAA POLY, WS)
Text: TAF NTAA 270500Z 2706/2812 06006KT 9999 FEW020
Forecast period: 1700 UTC 27 April 2018 to 1200 UTC 28 April 2018
Forecast type: BECOMING: Conditions expected to become as follows by 1800 UTC 27 April 2018
Winds: from the NE (50 degrees) at 16 MPH (14 knots; 7.3 m/s)
Visibility: 6 or more miles (10+ km)
Clouds: few clouds at 2000 feet AGL
scattered clouds at 4500 feet AGL
Weather: no significant weather forecast for this period
Forecast for: NTAA (TAHITI-FAAA POLY, WS)
Text: TAF NTAA 270500Z 2706/2812 06006KT 9999 FEW020
Forecast period: 2100 UTC 27 April 2018 to 0100 UTC 28 April 2018
Forecast type: TEMPORARY: The following changes expected for less than half the time period
Winds: from the NNE (30 degrees) at 18 MPH (16 knots; 8.3 m/s)
gusting to 30 MPH (26 knots; 13.5 m/s)
Visibility: 1.86 miles (2.99 km)
Ceiling: 2000 feet AGL
Clouds: broken clouds at 2000 feet AGL
Weather: SHRA  (rain showers)
Forecast for: NTAA (TAHITI-FAAA POLY, WS)
Text: TAF NTAA 270500Z 2706/2812 06006KT 9999 FEW020
Forecast period: 2100 UTC 27 April 2018 to 0100 UTC 28 April 2018
Forecast type: TEMPORARY: The following changes expected for less than half the time period
Winds: from the NNE (30 degrees) at 18 MPH (16 knots; 8.3 m/s)
gusting to 30 MPH (26 knots; 13.5 m/s)
Visibility: 1.86 miles (2.99 km)
Ceiling: 2000 feet AGL
Clouds: broken clouds at 2000 feet AGL
Weather: SHRA  (rain showers)

 AIRPORT MAP

 RUNWAY INFORMATION
Runway 04 Runway length 11360 ft Runway width 148 ft
Runway elevation 5 ft Runway displaced threshold 1120 ft Runway heading 54
Runway 22 Runway length 11360 ft Runway width 148 ft
Runway elevation 5 ft Runway displaced threshold 390 ft Runway heading 234

 AIRPORT FREQUENCIES
Type APP Name APP Frequency 118.1 MHZ
Type ATIS Name ATIS Frequency 128.8 MHZ
Type GND Name GND Frequency 121.9 MHZ
Type TWR Name TWR Frequency 118.1 MHZ

 AIRPORT NEAR NAVIGATION AIDS
Type NDB Name Tahiti Faaa Frequency 305 KHZ
Type VOR-DME Name Tahiti Faaa Frequency 112900 KHZ